Time;durP1;ratioP1;P1;durP2;ratioP2;P2;SDS_P1;SDS_P2;PMS_P1;PMS_P2;Temp;Humidity;BMP_temperature;BMP_pressure;BME280_temperature;BME280_humidity;BME280_pressure;Samples;Min_cycle;Max_cycle;Signal;HPM_P1;HPM_P2
2023/05/02 00:00:48;;;;;;;1.90;1.80;;;;;;;13.80;54.44;101353.34;5014683;27;97649;-79
2023/05/02 00:03:15;;;;;;;2.13;1.50;;;;;;;13.81;54.50;101346.53;5013879;27;96876;-79
2023/05/02 00:05:41;;;;;;;1.87;1.77;;;;;;;13.81;54.36;101346.53;5014963;27;97002;-79
2023/05/02 00:08:06;;;;;;;1.50;1.40;;;;;;;13.78;54.42;101355.84;5014542;27;97115;-79
2023/05/02 00:10:32;;;;;;;1.47;1.40;;;;;;;13.81;54.41;101366.66;5012240;27;96808;-78
2023/05/02 00:12:57;;;;;;;1.40;1.30;;;;;;;13.79;54.26;101354.56;5022083;27;100230;-78
2023/05/02 00:15:22;;;;;;;1.93;1.80;;;;;;;13.79;54.38;101351.81;5017382;27;103938;-78
2023/05/02 00:17:48;;;;;;;1.60;1.50;;;;;;;13.80;54.54;101358.88;5015312;27;96977;-78
2023/05/02 00:20:13;;;;;;;1.50;1.40;;;;;;;13.80;54.38;101356.09;5012098;27;97799;-79
2023/05/02 00:22:38;;;;;;;1.80;1.70;;;;;;;13.78;54.53;101348.28;5012764;27;97352;-79
2023/05/02 00:25:05;;;;;;;1.27;1.17;;;;;;;13.80;54.65;101353.34;5015067;27;96949;-80
2023/05/02 00:27:31;;;;;;;2.40;1.43;;;;;;;13.76;54.56;101350.06;5019388;27;96821;-79
2023/05/02 00:29:58;;;;;;;2.87;1.60;;;;;;;13.76;54.67;101350.06;5021810;27;97811;-79
2023/05/02 00:32:23;;;;;;;1.53;1.43;;;;;;;13.74;54.73;101341.50;5014594;27;97343;-78
2023/05/02 00:34:48;;;;;;;1.37;1.30;;;;;;;13.76;54.91;101339.72;5012606;27;99573;-79
2023/05/02 00:37:14;;;;;;;1.87;1.40;;;;;;;13.76;54.68;101339.72;5017324;27;97365;-79
2023/05/02 00:39:40;;;;;;;1.27;1.17;;;;;;;13.76;55.00;101347.28;5020883;27;96874;-79
2023/05/02 00:42:05;;;;;;;1.40;1.40;;;;;;;13.80;54.76;101361.63;5013388;27;101201;-79
2023/05/02 00:44:31;;;;;;;1.83;1.43;;;;;;;13.78;54.76;101358.63;5020739;27;100130;-78
2023/05/02 00:46:57;;;;;;;1.40;1.30;;;;;;;13.75;54.74;101352.06;5015176;27;97468;-79
2023/05/02 00:49:23;;;;;;;1.73;1.63;;;;;;;13.77;54.77;101360.63;5015159;27;97010;-78
2023/05/02 00:51:49;;;;;;;1.87;1.60;;;;;;;13.76;54.76;101363.88;5012685;27;97905;-79
2023/05/02 00:54:14;;;;;;;1.67;1.57;;;;;;;13.72;54.70;101366.09;5013077;27;100529;-79
2023/05/02 00:56:40;;;;;;;1.50;1.40;;;;;;;13.73;54.84;101362.88;5013005;27;97761;-79
2023/05/02 00:59:07;;;;;;;1.73;1.30;;;;;;;13.71;54.82;101367.38;5017839;27;103723;-79
2023/05/02 01:01:59;;;;;;;2.00;1.90;;;;;;;13.70;56.25;101358.31;5012454;27;96866;-79
2023/05/02 01:04:27;;;;;;;1.50;1.40;;;;;;;13.71;55.07;101361.84;5014154;27;97229;-80
2023/05/02 01:07:15;;;;;;;2.30;1.53;;;;;;;13.72;55.31;101360.59;5014879;27;96894;-80
2023/05/02 01:09:49;;;;;;;7.37;1.80;;;;;;;13.72;55.14;101360.59;5012453;27;97418;-80
2023/05/02 01:12:32;;;;;;;3.07;1.57;;;;;;;13.71;56.30;101361.84;5015788;27;97938;-80
2023/05/02 01:14:59;;;;;;;2.10;1.90;;;;;;;13.68;55.14;101354.53;5017542;27;100469;-80
2023/05/02 01:17:29;;;;;;;1.67;1.57;;;;;;;13.65;55.07;101361.81;5014675;27;96747;-80
2023/05/02 01:19:58;;;;;;;1.53;1.43;;;;;;;13.68;55.25;101357.28;5012818;27;97092;-80
2023/05/02 01:22:27;;;;;;;2.40;2.10;;;;;;;13.66;55.17;101366.09;5014275;27;97912;-79
2023/05/02 01:25:07;;;;;;;2.60;2.07;;;;;;;13.60;56.30;101353.50;5013303;27;97382;-80
2023/05/02 01:27:36;;;;;;;1.50;1.40;;;;;;;13.61;55.27;101360.56;5010868;27;97043;-78
2023/05/02 01:30:03;;;;;;;2.30;2.10;;;;;;;13.58;55.40;101353.25;5011966;27;96986;-79
2023/05/02 01:32:32;;;;;;;2.93;2.20;;;;;;;13.59;55.25;101368.56;5018031;27;97177;-79
2023/05/02 01:35:00;;;;;;;2.70;2.50;;;;;;;13.53;55.37;101366.56;5025071;27;96856;-79
2023/05/02 01:37:27;;;;;;;6.20;2.80;;;;;;;13.51;55.43;101360.00;5018959;27;97298;-79
2023/05/02 01:39:55;;;;;;;2.93;2.10;;;;;;;13.50;55.38;101364.75;5019573;27;96913;-80
2023/05/02 01:42:22;;;;;;;2.57;2.47;;;;;;;13.45;55.48;101368.25;5019147;27;100139;-79
2023/05/02 01:44:49;;;;;;;5.27;2.70;;;;;;;13.41;55.31;101362.19;5015872;27;97296;-79
2023/05/02 01:47:15;;;;;;;3.37;2.17;;;;;;;13.38;55.27;101379.78;5018944;27;97225;-80
2023/05/02 01:49:42;;;;;;;2.40;2.20;;;;;;;13.36;55.50;101381.53;5024343;27;97384;-80
2023/05/02 01:52:11;;;;;;;2.27;1.87;;;;;;;13.32;55.54;101378.97;5016062;27;97099;-79
2023/05/02 01:54:38;;;;;;;2.13;2.03;;;;;;;13.30;55.52;101389.75;5020414;27;98317;-80
2023/05/02 01:57:07;;;;;;;2.60;2.40;;;;;;;13.28;55.51;101386.75;5021279;27;97226;-80
2023/05/02 01:59:34;;;;;;;3.20;2.63;;;;;;;13.23;55.57;101401.31;5023515;27;97499;-79
2023/05/02 02:02:01;;;;;;;2.97;2.77;;;;;;;13.21;55.63;101392.75;5017342;27;99546;-79
2023/05/02 02:04:28;;;;;;;2.67;2.47;;;;;;;13.15;55.60;101400.22;5019407;27;97578;-79
2023/05/02 02:07:02;;;;;;;3.23;2.93;;;;;;;13.16;56.42;101400.97;5018700;27;96965;-80
2023/05/02 02:09:28;;;;;;;5.13;3.00;;;;;;;13.13;55.57;101401.97;5023610;27;99060;-79
2023/05/02 02:12:25;;;;;;;5.33;3.93;;;;;;;13.15;57.08;101402.97;5032754;27;99213;-80
2023/05/02 02:15:15;;;;;;;3.93;3.63;;;;;;;13.13;56.41;101402.72;5014974;27;100191;-80
2023/05/02 02:18:04;;;;;;;8.90;3.87;;;;;;;13.21;57.66;101406.56;5006813;27;97629;-80
2023/05/02 02:20:31;;;;;;;4.83;4.13;;;;;;;13.19;55.91;101411.81;5018050;27;96799;-80
2023/05/02 02:22:59;;;;;;;4.90;3.90;;;;;;;13.22;55.91;101408.06;5015437;27;99427;-80
2023/05/02 02:25:26;;;;;;;6.30;4.20;;;;;;;13.25;55.92;101398.81;5023910;27;100822;-80
2023/05/02 02:27:52;;;;;;;4.40;4.00;;;;;;;13.25;55.91;101403.56;5012862;27;97041;-80
2023/05/02 02:30:17;;;;;;;5.53;4.13;;;;;;;13.31;56.08;101426.47;5017181;27;97186;-80
2023/05/02 02:32:42;;;;;;;5.10;3.93;;;;;;;13.34;55.94;101423.47;5018453;27;97196;-80
2023/05/02 02:35:09;;;;;;;5.30;4.80;;;;;;;13.38;56.07;101418.47;5023950;27;100783;-80
2023/05/02 02:37:40;;;;;;;6.33;5.47;;;;;;;13.42;56.48;101407.94;5017137;27;97493;-81
2023/05/02 02:40:12;;;;;;;5.70;5.20;;;;;;;13.45;56.72;101406.94;5015773;27;96976;-79
2023/05/02 02:42:48;;;;;;;6.40;5.20;;;;;;;13.50;56.55;101413.75;5016037;27;99195;-79
2023/05/02 02:46:11;;;;;;;6.10;4.93;;;;;;;13.51;58.34;101426.34;5020169;27;100498;-79
2023/05/02 02:49:03;;;;;;;6.50;5.63;;;;;;;13.48;57.59;101425.31;4945233;28;97515;-80
2023/05/02 02:51:37;;;;;;;5.30;4.80;;;;;;;13.51;56.55;101427.09;4961015;28;96712;-80
2023/05/02 02:54:20;;;;;;;6.33;4.80;;;;;;;13.57;57.16;101429.13;5005876;27;97905;-80
2023/05/02 02:56:49;;;;;;;6.53;5.60;;;;;;;13.59;56.64;101432.16;5014954;27;96847;-80
2023/05/02 02:59:23;;;;;;;8.10;6.50;;;;;;;13.64;56.65;101434.97;5019645;27;97541;-80
2023/05/02 03:02:02;;;;;;;6.47;5.83;;;;;;;13.68;57.20;101441.03;5032381;27;97283;-80
2023/05/02 03:04:30;;;;;;;9.20;6.80;;;;;;;13.70;56.69;101444.03;5015622;27;99917;-80
2023/05/02 03:06:56;;;;;;;8.67;6.50;;;;;;;13.76;56.67;101458.66;5017525;27;97912;-80
2023/05/02 03:09:21;;;;;;;9.17;6.80;;;;;;;13.78;56.59;101447.13;5020664;27;96944;-78
2023/05/02 03:11:46;;;;;;;10.83;6.83;;;;;;;13.79;56.69;101446.63;5016476;27;96846;-80
2023/05/02 03:14:12;;;;;;;8.17;6.90;;;;;;;13.84;56.88;101453.44;5015263;27;97984;-79
2023/05/02 03:16:40;;;;;;;7.97;6.90;;;;;;;13.90;56.86;101474.34;5012587;27;97093;-80
2023/05/02 03:19:07;;;;;;;8.83;6.90;;;;;;;13.91;56.52;101448.16;5017639;27;96765;-80
2023/05/02 03:21:34;;;;;;;10.10;7.70;;;;;;;13.96;56.67;101457.75;5013004;27;96947;-80
2023/05/02 03:24:00;;;;;;;11.70;7.57;;;;;;;13.95;56.68;101450.72;5014295;27;99516;-79
2023/05/02 03:26:26;;;;;;;10.60;7.70;;;;;;;14.00;56.87;101463.81;5018335;27;96986;-79
2023/05/02 03:28:52;;;;;;;10.20;8.07;;;;;;;14.02;56.95;101469.63;5020397;27;97173;-79
2023/05/02 03:31:17;;;;;;;10.17;7.87;;;;;;;14.04;56.88;101461.56;5017354;27;97612;-80
2023/05/02 03:33:43;;;;;;;12.50;8.33;;;;;;;14.06;56.99;101467.38;5015618;27;97310;-80
2023/05/02 03:36:08;;;;;;;10.30;8.00;;;;;;;14.08;57.01;101470.41;5023122;27;100058;-80
2023/05/02 03:38:34;;;;;;;11.43;8.60;;;;;;;14.12;57.22;101468.16;5017555;27;97139;-80
2023/05/02 03:40:59;;;;;;;10.20;8.30;;;;;;;14.14;56.99;101471.16;5016055;27;97301;-80
2023/05/02 03:43:25;;;;;;;12.70;9.17;;;;;;;14.13;57.13;101466.91;5022000;27;100461;-80
2023/05/02 03:45:50;;;;;;;12.63;9.70;;;;;;;14.16;57.18;101474.19;5017893;27;100416;-79
2023/05/02 03:48:15;;;;;;;13.43;9.60;;;;;;;14.20;57.28;101480.25;5020840;27;97595;-79
2023/05/02 03:50:42;;;;;;;12.30;9.37;;;;;;;14.21;57.21;101488.06;5011365;27;97845;-80
2023/05/02 03:53:08;;;;;;;12.53;9.07;;;;;;;14.22;57.38;101484.03;5021520;27;99628;-80
2023/05/02 03:55:41;;;;;;;10.43;8.20;;;;;;;14.20;57.81;101494.09;5017923;27;100637;-80
2023/05/02 03:58:07;;;;;;;12.13;8.63;;;;;;;14.22;57.46;101497.09;5015934;27;96855;-80
2023/05/02 04:00:32;;;;;;;13.27;9.07;;;;;;;14.23;57.51;101487.56;5013211;27;97127;-80
2023/05/02 04:03:00;;;;;;;12.83;9.90;;;;;;;14.22;57.72;101510.94;5015538;27;100269;-79
2023/05/02 04:05:26;;;;;;;16.30;10.40;;;;;;;14.22;57.74;101499.88;5031802;27;98947;-80
2023/05/02 04:07:51;;;;;;;11.20;9.23;;;;;;;14.20;57.70;101508.69;5016281;27;97577;-80
2023/05/02 04:10:17;;;;;;;14.60;9.57;;;;;;;14.18;57.90;101513.97;5024082;27;101279;-80
2023/05/02 04:12:43;;;;;;;14.27;9.60;;;;;;;14.18;58.07;101510.44;5024685;27;99611;-80
2023/05/02 04:15:09;;;;;;;12.00;8.90;;;;;;;14.14;58.27;101518.97;5016733;27;98008;-80
2023/05/02 04:17:35;;;;;;;10.13;8.07;;;;;;;14.08;58.17;101531.28;5013588;27;97140;-80
2023/05/02 04:20:00;;;;;;;9.80;7.90;;;;;;;14.04;58.34;101534.25;5015018;27;97991;-80
2023/05/02 04:22:26;;;;;;;7.00;5.70;;;;;;;14.06;58.36;101550.38;5017711;27;97575;-80
2023/05/02 04:24:52;;;;;;;6.17;5.57;;;;;;;14.08;58.34;101556.94;5022796;27;97491;-80
2023/05/02 04:27:17;;;;;;;6.87;4.73;;;;;;;14.05;58.59;101560.69;5017280;27;97025;-80
2023/05/02 04:29:42;;;;;;;5.77;4.87;;;;;;;14.08;58.43;101570.78;5023371;27;100702;-80
2023/05/02 04:32:08;;;;;;;12.43;4.73;;;;;;;14.08;58.50;101556.94;5018018;27;97272;-80
2023/05/02 04:34:34;;;;;;;4.63;4.23;;;;;;;14.00;58.59;101558.63;5017051;27;97513;-80
2023/05/02 04:37:00;;;;;;;2.80;2.47;;;;;;;13.91;58.92;101596.81;5016404;27;97580;-79
2023/05/02 04:39:25;;;;;;;2.20;2.10;;;;;;;13.67;58.61;101599.16;5018079;27;97459;-79
2023/05/02 04:41:51;;;;;;;1.63;1.53;;;;;;;13.53;59.03;101598.78;5016187;27;101756;-81
2023/05/02 04:44:16;;;;;;;1.70;1.33;;;;;;;13.42;58.84;101618.03;5013831;27;99995;-81
2023/05/02 04:46:41;;;;;;;0.80;0.80;;;;;;;13.35;58.99;101624.00;5014819;27;97112;-81
2023/05/02 04:49:07;;;;;;;0.70;0.70;;;;;;;13.24;58.69;101612.06;5016051;27;97424;-81
2023/05/02 04:51:32;;;;;;;1.00;0.87;;;;;;;13.25;58.78;101621.88;5017235;27;97041;-82
2023/05/02 04:53:58;;;;;;;1.10;0.93;;;;;;;13.15;58.76;101626.78;5016784;27;96883;-80
2023/05/02 04:56:23;;;;;;;1.10;0.80;;;;;;;13.10;58.68;101638.56;5014659;27;96999;-80
2023/05/02 04:58:48;;;;;;;1.10;0.70;;;;;;;13.05;58.82;101633.72;5019307;27;97376;-81
2023/05/02 05:01:13;;;;;;;1.47;1.10;;;;;;;12.91;58.79;101645.56;5022048;27;99713;-81
2023/05/02 05:03:39;;;;;;;1.40;0.90;;;;;;;12.84;58.89;101654.28;5013791;27;97056;-80
2023/05/02 05:06:04;;;;;;;3.43;1.40;;;;;;;12.73;59.03;101648.63;5023391;27;97191;-81
2023/05/02 05:08:30;;;;;;;3.07;1.47;;;;;;;12.59;59.01;101668.75;5020299;27;96865;-80
2023/05/02 05:10:55;;;;;;;1.87;0.90;;;;;;;12.61;58.82;101674.56;5024460;27;100303;-82
2023/05/02 05:13:21;;;;;;;1.37;1.00;;;;;;;12.56;58.82;101680.75;5014709;27;97771;-80
2023/05/02 05:15:46;;;;;;;2.00;1.80;;;;;;;12.43;59.09;101689.34;5017498;27;97248;-81
2023/05/02 05:18:12;;;;;;;3.90;1.67;;;;;;;12.42;58.69;101703.66;5019326;27;96876;-81
2023/05/02 05:20:37;;;;;;;2.60;1.70;;;;;;;12.33;58.95;101687.97;5016295;27;97587;-81
2023/05/02 05:23:02;;;;;;;5.50;1.90;;;;;;;12.33;59.13;101704.53;5015394;27;99062;-81
2023/05/02 05:25:28;;;;;;;7.77;2.00;;;;;;;12.22;58.65;101698.84;5020512;27;97138;-81
2023/05/02 05:27:55;;;;;;;6.63;2.87;;;;;;;12.13;58.75;101709.19;5020479;27;97265;-80
2023/05/02 05:30:20;;;;;;;5.83;2.43;;;;;;;12.10;58.55;101699.88;5024100;27;97946;-80
2023/05/02 05:32:46;;;;;;;12.50;3.07;;;;;;;12.10;58.53;101719.19;5025488;27;100930;-79
2023/05/02 05:35:12;;;;;;;5.60;2.70;;;;;;;12.14;58.57;101707.97;5015757;27;97080;-80
2023/05/02 05:37:38;;;;;;;9.20;2.70;;;;;;;12.07;58.30;101716.63;5018720;27;97087;-81
2023/05/02 05:40:06;;;;;;;10.43;2.57;;;;;;;11.98;58.23;101709.97;5016312;27;97368;-80
2023/05/02 05:42:32;;;;;;;6.33;3.00;;;;;;;12.12;58.13;101733.28;5017279;27;97482;-80
2023/05/02 05:44:57;;;;;;;6.43;2.07;;;;;;;12.20;58.27;101733.66;5017472;27;97233;-80
2023/05/02 05:47:22;;;;;;;7.67;2.20;;;;;;;12.21;57.79;101733.16;5019739;27;97718;-81
2023/05/02 05:49:55;;;;;;;9.37;2.93;;;;;;;12.16;57.52;101782.75;5019949;27;99595;-81
2023/05/02 05:52:21;;;;;;;6.00;2.63;;;;;;;12.20;57.63;101764.00;5019331;27;97663;-81
2023/05/02 05:54:46;;;;;;;6.63;2.93;;;;;;;12.26;57.42;101756.56;5018270;27;97029;-80
2023/05/02 05:57:12;;;;;;;10.97;2.97;;;;;;;12.24;57.52;101759.03;5018318;27;97638;-80
2023/05/02 05:59:37;;;;;;;7.43;3.10;;;;;;;12.21;57.34;101760.75;5017977;27;97985;-80
2023/05/02 06:02:03;;;;;;;5.60;2.07;;;;;;;12.30;57.38;101773.69;5019759;27;97229;-80
2023/05/02 06:04:28;;;;;;;5.67;1.70;;;;;;;12.39;57.08;101771.59;5017104;27;97113;-80
2023/05/02 06:06:54;;;;;;;5.23;2.10;;;;;;;12.34;57.17;101769.50;5015163;27;96888;-80
2023/05/02 06:09:19;;;;;;;14.40;3.00;;;;;;;12.25;56.76;101782.66;5020858;27;98126;-80
2023/05/02 06:11:44;;;;;;;9.50;3.30;;;;;;;12.11;56.84;101783.41;5021766;27;100356;-80
2023/05/02 06:14:10;;;;;;;12.00;3.27;;;;;;;12.20;56.94;101784.06;5020752;27;103387;-80
2023/05/02 06:16:35;;;;;;;7.63;2.70;;;;;;;12.29;56.86;101789.50;5020010;27;96988;-80
2023/05/02 06:19:01;;;;;;;7.23;2.50;;;;;;;12.37;56.71;101795.38;5017341;27;97033;-80
2023/05/02 06:21:26;;;;;;;10.23;2.70;;;;;;;12.39;56.52;101792.91;5017315;27;97248;-82
2023/05/02 06:23:52;;;;;;;8.17;2.20;;;;;;;12.44;56.34;101795.00;5024453;27;97809;-81
2023/05/02 06:26:17;;;;;;;6.53;2.33;;;;;;;12.55;56.16;101792.44;5018724;27;97200;-81
2023/05/02 06:28:43;;;;;;;10.67;2.87;;;;;;;12.63;56.38;101804.59;5020614;27;100965;-79
2023/05/02 06:31:08;;;;;;;4.80;1.93;;;;;;;12.76;56.05;101805.03;5016246;27;97067;-80
2023/05/02 06:33:35;;;;;;;14.43;2.90;;;;;;;12.71;55.76;101814.03;5020135;27;96815;-80
2023/05/02 06:36:01;;;;;;;10.67;2.70;;;;;;;12.68;55.71;101812.22;5021271;27;97902;-80
2023/05/02 06:38:26;;;;;;;5.33;1.60;;;;;;;12.66;55.55;101836.78;5023427;27;100235;-80
2023/05/02 06:40:51;;;;;;;7.33;2.37;;;;;;;12.73;55.38;101836.41;5015472;27;107180;-80
2023/05/02 06:43:17;;;;;;;7.97;2.53;;;;;;;12.78;55.37;101828.19;5020610;27;97484;-81
2023/05/02 06:45:43;;;;;;;6.03;2.23;;;;;;;12.90;55.35;101840.16;5015510;27;97381;-79
2023/05/02 06:48:09;;;;;;;7.67;2.30;;;;;;;12.96;54.82;101845.75;5014488;27;100172;-81
2023/05/02 06:50:35;;;;;;;4.30;1.53;;;;;;;13.00;54.78;101841.56;5019132;27;97623;-80
2023/05/02 06:53:00;;;;;;;6.83;2.20;;;;;;;13.02;54.84;101855.66;5024679;27;98236;-81
2023/05/02 06:55:27;;;;;;;7.63;2.30;;;;;;;13.08;54.74;101853.03;5016271;27;97369;-80
2023/05/02 06:57:53;;;;;;;3.73;1.83;;;;;;;13.12;54.71;101859.88;5019805;27;100675;-80
2023/05/02 07:00:19;;;;;;;3.10;1.80;;;;;;;13.23;54.59;101853.75;5017567;27;96742;-80
2023/05/02 07:02:46;;;;;;;4.20;1.53;;;;;;;13.33;54.33;101864.19;5030105;27;96976;-81
2023/05/02 07:05:11;;;;;;;10.10;2.30;;;;;;;13.27;53.79;101866.13;5017967;27;97578;-80
2023/05/02 07:07:37;;;;;;;6.43;2.27;;;;;;;13.22;53.83;101866.78;5016553;27;97352;-80
2023/05/02 07:10:03;;;;;;;2.87;1.70;;;;;;;13.19;53.71;101876.03;5018400;27;97073;-81
2023/05/02 07:12:28;;;;;;;4.30;1.70;;;;;;;13.11;53.52;101865.88;5013712;27;97149;-81
2023/05/02 07:14:54;;;;;;;4.60;2.07;;;;;;;13.17;53.62;101888.84;5018652;27;97369;-81
2023/05/02 07:17:20;;;;;;;4.73;1.70;;;;;;;13.25;53.61;101912.06;5015213;27;99536;-80
2023/05/02 07:19:45;;;;;;;5.30;1.67;;;;;;;13.44;53.20;101894.75;5024268;27;100054;-81
2023/05/02 07:22:10;;;;;;;4.83;1.57;;;;;;;13.53;52.93;101894.63;5015896;28;97505;-80
2023/05/02 07:24:40;;;;;;;11.87;2.30;;;;;;;13.46;52.25;101906.09;5016987;27;96724;-82
2023/05/02 07:27:05;;;;;;;4.17;2.00;;;;;;;13.35;52.24;101900.41;5019062;27;100887;-81
2023/05/02 07:29:31;;;;;;;6.40;1.87;;;;;;;13.16;52.66;101914.94;5016005;27;97086;-80
2023/05/02 07:31:56;;;;;;;4.07;1.50;;;;;;;13.24;52.67;101914.06;5016716;27;96785;-80
2023/05/02 07:34:21;;;;;;;2.60;1.00;;;;;;;13.32;52.67;101922.72;5020481;27;97206;-81
2023/05/02 07:36:47;;;;;;;3.40;1.20;;;;;;;13.38;52.29;101926.31;5016209;27;98057;-81
2023/05/02 07:39:12;;;;;;;5.03;1.20;;;;;;;13.37;51.71;101911.72;5025837;27;99539;-79
2023/05/02 07:41:37;;;;;;;2.97;1.07;;;;;;;13.46;51.88;101928.19;5006097;27;100161;-81
2023/05/02 07:44:03;;;;;;;3.33;1.20;;;;;;;13.48;51.58;101925.72;5015174;27;96894;-80
2023/05/02 07:46:28;;;;;;;2.17;1.27;;;;;;;13.50;51.55;101931.53;5014814;27;99941;-80
2023/05/02 07:48:54;;;;;;;1.00;0.90;;;;;;;13.56;51.63;101933.63;5011127;27;100035;-80
2023/05/02 07:51:20;;;;;;;9.10;1.50;;;;;;;13.46;50.95;101936.50;5014304;27;96708;-80
2023/05/02 07:53:48;;;;;;;3.23;1.30;;;;;;;13.50;51.18;101936.28;5016541;27;98247;-80
2023/05/02 07:56:14;;;;;;;2.47;1.10;;;;;;;13.58;51.16;101933.88;5017829;27;97465;-81
2023/05/02 07:58:39;;;;;;;3.07;1.00;;;;;;;13.52;50.67;101950.38;5013340;27;99285;-80
2023/05/02 08:01:05;;;;;;;1.90;0.93;;;;;;;13.49;50.83;101938.31;5018826;27;97839;-81
2023/05/02 08:03:30;;;;;;;4.00;1.60;;;;;;;13.55;50.69;101952.19;5015961;27;96866;-80
2023/05/02 08:05:56;;;;;;;1.87;0.93;;;;;;;13.51;50.63;101948.88;5019522;27;100146;-80
2023/05/02 08:08:22;;;;;;;2.77;0.90;;;;;;;13.63;50.75;101953.31;5015799;27;99962;-81
2023/05/02 08:10:49;;;;;;;1.90;1.00;;;;;;;13.61;50.22;101950.28;5011986;27;96768;-80
2023/05/02 08:13:14;;;;;;;1.83;0.93;;;;;;;13.64;49.82;101970.69;5014203;27;97730;-80
2023/05/02 08:15:40;;;;;;;2.00;0.93;;;;;;;13.60;49.67;101970.88;5015216;27;97349;-81
2023/05/02 08:18:05;;;;;;;5.57;1.20;;;;;;;13.51;49.63;101974.53;5020193;27;99206;-81
2023/05/02 08:20:31;;;;;;;2.27;1.07;;;;;;;13.48;49.93;101983.78;5020833;27;97157;-81
2023/05/02 08:22:56;;;;;;;2.00;1.13;;;;;;;13.44;49.62;101999.81;5018203;27;97761;-80
2023/05/02 08:25:21;;;;;;;2.40;1.30;;;;;;;13.33;49.63;101996.88;5019753;27;97053;-81
2023/05/02 08:27:47;;;;;;;3.73;0.97;;;;;;;13.36;49.57;101989.63;5015340;27;100504;-79
2023/05/02 08:30:13;;;;;;;2.50;1.20;;;;;;;13.42;49.60;101993.22;5016839;27;100142;-81
2023/05/02 08:32:38;;;;;;;4.30;1.20;;;;;;;13.57;49.95;102009.78;5018674;27;97768;-80
2023/05/02 08:35:04;;;;;;;2.40;1.00;;;;;;;13.78;49.63;102003.81;5018818;27;97190;-81
2023/05/02 08:37:30;;;;;;;5.33;1.40;;;;;;;13.97;49.23;102015.41;5023118;27;100186;-81
2023/05/02 08:39:56;;;;;;;2.30;1.17;;;;;;;14.12;48.86;102021.66;5022782;27;97644;-81
2023/05/02 08:42:22;;;;;;;2.50;1.00;;;;;;;14.22;48.47;102018.25;5015801;27;96664;-80
2023/05/02 08:44:48;;;;;;;4.67;1.10;;;;;;;14.04;48.07;102017.78;5024042;27;99641;-80
2023/05/02 08:47:14;;;;;;;5.50;1.03;;;;;;;14.08;48.23;102027.41;5021935;27;99568;-81
2023/05/02 08:49:41;;;;;;;2.77;1.40;;;;;;;14.05;48.16;102006.22;5022261;27;96962;-81
2023/05/02 08:52:08;;;;;;;5.20;1.20;;;;;;;14.25;48.17;102024.84;5014451;27;97509;-81
2023/05/02 08:54:36;;;;;;;3.40;1.33;;;;;;;14.33;47.24;102041.84;5015193;27;99599;-81
2023/05/02 08:57:03;;;;;;;4.20;1.33;;;;;;;14.19;47.61;102043.38;5016361;27;100127;-80
2023/05/02 08:59:29;;;;;;;3.93;1.30;;;;;;;14.09;47.75;102039.22;5023142;27;98098;-81
2023/05/02 09:01:59;;;;;;;3.10;1.17;;;;;;;14.17;47.26;102035.56;5021134;27;97096;-81
2023/05/02 09:04:30;;;;;;;11.93;1.93;;;;;;;14.30;47.84;102054.63;5017513;27;97890;-80
2023/05/02 09:06:56;;;;;;;2.90;1.27;;;;;;;14.40;47.89;102047.69;5020969;27;99357;-81
2023/05/02 09:09:22;;;;;;;1.60;1.37;;;;;;;14.49;47.59;102057.88;5012607;27;96796;-80
2023/05/02 09:11:49;;;;;;;4.30;1.63;;;;;;;14.54;47.02;102059.97;5016988;27;96710;-79
2023/05/02 09:14:15;;;;;;;6.23;2.10;;;;;;;14.49;47.17;102063.41;5015964;27;101001;-81
2023/05/02 09:16:41;;;;;;;7.33;1.63;;;;;;;14.45;47.47;102080.25;5012223;27;97422;-81
2023/05/02 09:19:07;;;;;;;3.10;1.80;;;;;;;14.58;47.27;102069.59;5017196;27;97447;-81
2023/05/02 09:21:40;;;;;;;3.47;1.50;;;;;;;14.53;46.06;102081.34;5021890;27;97645;-80
2023/05/02 09:24:19;;;;;;;3.47;1.60;;;;;;;14.53;46.08;102084.13;5012790;27;98343;-81
2023/05/02 09:26:58;;;;;;;4.00;1.87;;;;;;;14.42;45.60;102083.97;5012871;27;97591;-82
2023/05/02 09:29:23;;;;;;;3.50;1.00;;;;;;;14.49;47.07;102099.41;5016496;27;96794;-81
2023/05/02 09:31:49;;;;;;;4.17;1.77;;;;;;;14.56;46.67;102096.25;5014728;27;96767;-80
2023/05/02 09:34:16;;;;;;;2.63;1.30;;;;;;;14.50;46.65;102084.34;5023102;27;99083;-81
2023/05/02 09:36:45;;;;;;;4.80;1.80;;;;;;;14.48;46.54;102092.38;5013696;27;97337;-81
2023/05/02 09:39:16;;;;;;;7.03;1.50;;;;;;;14.61;46.20;102106.63;5017396;27;97014;-80
2023/05/02 09:41:44;;;;;;;1.30;1.03;;;;;;;14.68;46.48;102101.44;5013227;27;99694;-81
2023/05/02 09:44:11;;;;;;;2.17;1.60;;;;;;;14.89;46.42;102091.88;5021345;27;100314;-81
2023/05/02 09:46:40;;;;;;;5.23;1.53;;;;;;;15.06;45.78;102096.81;5013818;27;97505;-81
2023/05/02 09:49:07;;;;;;;4.03;1.70;;;;;;;15.11;45.82;102104.44;5009092;27;96857;-80
2023/05/02 09:51:32;;;;;;;3.83;1.27;;;;;;;15.11;45.67;102098.88;5015132;27;97230;-82
2023/05/02 09:53:57;;;;;;;4.73;1.73;;;;;;;15.16;45.68;102118.34;5019422;27;105474;-82
2023/05/02 09:56:23;;;;;;;4.30;2.27;;;;;;;15.17;45.37;102114.31;5016986;27;97349;-82
2023/05/02 09:58:48;;;;;;;4.63;1.70;;;;;;;15.25;45.14;102109.88;5023511;27;97273;-81
2023/05/02 10:01:15;;;;;;;6.30;1.93;;;;;;;15.18;45.06;102109.53;5021875;27;97277;-81
2023/05/02 10:03:45;;;;;;;6.40;1.80;;;;;;;15.00;44.70;102128.00;5014456;27;98038;-81
2023/05/02 10:06:11;;;;;;;7.97;2.40;;;;;;;14.71;44.43;102114.31;5031654;27;100162;-81
2023/05/02 10:08:38;;;;;;;3.80;1.47;;;;;;;14.60;45.06;102127.25;5015483;27;97460;-81
2023/05/02 10:11:06;;;;;;;6.13;1.83;;;;;;;14.78;44.91;102129.75;5016334;27;97421;-82
2023/05/02 10:13:33;;;;;;;5.70;1.70;;;;;;;14.81;45.22;102140.63;5016810;27;98113;-81
2023/05/02 10:16:06;;;;;;;4.43;1.73;;;;;;;14.96;44.59;102123.94;5021155;27;99948;-81
2023/05/02 10:18:55;;;;;;;3.03;1.57;;;;;;;15.22;44.11;102151.69;5022812;27;97241;-80
2023/05/02 10:21:26;;;;;;;4.43;1.80;;;;;;;15.56;43.78;102143.22;5018763;27;97282;-81
2023/05/02 10:23:53;;;;;;;4.73;1.87;;;;;;;15.77;44.62;102141.13;5020640;27;100272;-82
2023/05/02 10:26:21;;;;;;;5.60;1.80;;;;;;;16.15;44.37;102170.44;5016030;27;96924;-81
2023/05/02 10:28:47;;;;;;;1.43;1.30;;;;;;;16.57;43.73;102147.50;5019289;27;97282;-81
2023/05/02 10:31:13;;;;;;;5.40;1.30;;;;;;;16.82;43.55;102146.63;5023561;27;97007;-81
2023/05/02 10:33:39;;;;;;;2.47;1.57;;;;;;;16.81;43.13;102167.31;5018620;27;96787;-81
2023/05/02 10:36:08;;;;;;;4.77;2.10;;;;;;;16.77;42.95;102145.31;5020686;27;100072;-81
2023/05/02 10:38:35;;;;;;;4.13;1.57;;;;;;;16.73;43.20;102139.22;5020349;27;97232;-81
2023/05/02 10:41:06;;;;;;;4.63;1.50;;;;;;;16.56;42.63;102149.50;5018212;27;97714;-81
2023/05/02 10:43:34;;;;;;;7.93;2.00;;;;;;;16.38;42.49;102131.19;5016605;27;99833;-82
2023/05/02 10:46:02;;;;;;;4.17;1.80;;;;;;;16.25;42.49;102141.97;5022883;27;99177;-82
2023/05/02 10:48:28;;;;;;;6.93;2.20;;;;;;;16.36;42.55;102183.72;5031384;27;97730;-82
2023/05/02 10:50:55;;;;;;;6.83;1.67;;;;;;;16.19;42.19;102145.97;5016732;27;97181;-82
2023/05/02 10:53:25;;;;;;;5.00;1.70;;;;;;;16.13;40.60;102151.50;5016074;27;99545;-82
2023/05/02 10:56:10;;;;;;;3.53;1.90;;;;;;;15.77;40.57;102150.22;5018959;27;97329;-81
2023/05/02 10:58:36;;;;;;;1.47;1.37;;;;;;;15.57;42.11;102152.31;5018634;27;97239;-82
2023/05/02 11:01:29;;;;;;;1.70;1.27;;;;;;;15.96;41.73;102139.53;5016315;27;97320;-82
2023/05/02 11:04:16;;;;;;;3.00;1.37;;;;;;;16.27;41.31;102125.56;5017755;27;97580;-82
2023/05/02 11:06:58;;;;;;;4.47;1.37;;;;;;;16.14;40.77;102139.13;5018772;27;98209;-82
2023/05/02 11:09:23;;;;;;;2.23;1.47;;;;;;;16.31;41.82;102147.59;5015521;27;96794;-81
2023/05/02 11:11:51;;;;;;;3.50;1.40;;;;;;;16.66;41.91;102139.72;5015507;27;97138;-80
2023/05/02 11:14:26;;;;;;;2.43;1.33;;;;;;;17.03;40.45;102150.72;5014977;27;97692;-82
2023/05/02 11:16:57;;;;;;;2.10;1.50;;;;;;;17.22;40.11;102160.13;5019838;27;99090;-82
2023/05/02 11:19:52;;;;;;;1.33;1.13;;;;;;;17.18;40.27;102174.28;5022098;27;96706;-82
2023/05/02 11:22:18;;;;;;;2.30;1.03;;;;;;;17.28;40.43;102155.31;5015535;27;97288;-83
2023/05/02 11:24:46;;;;;;;2.60;1.47;;;;;;;17.09;40.77;102159.84;5018182;27;96998;-83